Time;durP1;ratioP1;P1;durP2;ratioP2;P2;SDS_P1;SDS_P2;PMS_P1;PMS_P2;Temp;Humidity;BMP_temperature;BMP_pressure;BME280_temperature;BME280_humidity;BME280_pressure;Samples;Min_cycle;Max_cycle;Signal;HPM_P1;HPM_P2
2023/03/27 00:00:26;;;;;;;;;;;22.10;34.30;;;;;;5115233;28;20003;-76
2023/03/27 00:02:52;;;;;;;;;;;22.00;34.10;;;;;;5097478;28;20005;-76
2023/03/27 00:05:19;;;;;;;;;;;22.10;34.00;;;;;;5115357;28;20443;-75
2023/03/27 00:07:47;;;;;;;;;;;22.10;34.10;;;;;;5097023;28;19920;-76
2023/03/27 00:10:13;;;;;;;;;;;22.10;34.00;;;;;;5096588;28;20082;-81
2023/03/27 00:12:38;;;;;;;;;;;22.00;34.00;;;;;;5096964;28;20027;-76
2023/03/27 00:15:04;;;;;;;;;;;22.10;34.10;;;;;;5097833;28;20006;-79
2023/03/27 00:17:30;;;;;;;;;;;22.10;34.00;;;;;;5097127;28;19926;-82
2023/03/27 00:19:56;;;;;;;;;;;22.00;33.80;;;;;;5115434;28;19926;-78
2023/03/27 00:22:21;;;;;;;;;;;22.10;34.00;;;;;;5096284;28;19940;-76
2023/03/27 00:24:47;;;;;;;;;;;22.10;33.70;;;;;;5131966;27;20045;-75
2023/03/27 00:27:13;;;;;;;;;;;22.10;33.90;;;;;;5097562;28;20010;-78
2023/03/27 00:29:38;;;;;;;;;;;22.00;33.90;;;;;;5096843;28;20025;-76
2023/03/27 00:32:04;;;;;;;;;;;22.00;34.00;;;;;;5113416;28;19924;-81
2023/03/27 00:34:30;;;;;;;;;;;21.90;33.90;;;;;;5114293;28;19919;-76
2023/03/27 00:36:55;;;;;;;;;;;21.90;33.90;;;;;;5095855;28;20006;-78
2023/03/27 00:39:22;;;;;;;;;;;21.90;34.10;;;;;;5114156;28;20018;-76
2023/03/27 00:41:51;;;;;;;;;;;21.90;33.90;;;;;;5096174;28;20000;-76
2023/03/27 00:44:26;;;;;;;;;;;21.90;34.00;;;;;;5095757;28;20010;-75
2023/03/27 00:46:54;;;;;;;;;;;21.90;34.00;;;;;;5096077;28;19931;-75
2023/03/27 00:49:20;;;;;;;;;;;21.90;33.90;;;;;;5095572;28;20414;-75
2023/03/27 00:51:46;;;;;;;;;;;21.90;33.90;;;;;;5095722;28;19920;-77
2023/03/27 00:54:15;;;;;;;;;;;21.90;33.90;;;;;;5095495;28;19954;-75
2023/03/27 00:56:40;;;;;;;;;;;21.90;34.00;;;;;;5113886;28;19919;-75
2023/03/27 00:59:09;;;;;;;;;;;21.90;33.80;;;;;;5095689;28;19943;-76
2023/03/27 01:01:35;;;;;;;;;;;21.90;34.00;;;;;;5095865;28;19920;-82
2023/03/27 01:04:03;;;;;;;;;;;22.00;34.00;;;;;;5113714;28;20309;-76
2023/03/27 01:06:29;;;;;;;;;;;22.00;33.80;;;;;;5129567;27;19926;-76
2023/03/27 01:08:55;;;;;;;;;;;22.00;33.90;;;;;;5095027;28;19959;-79
2023/03/27 01:14:14;;;;;;;;;;;22.00;33.80;;;;;;5110267;27;19912;-75
2023/03/27 01:19:40;;;;;;;;;;;21.90;33.70;;;;;;5089691;28;19916;-74
2023/03/27 01:22:15;;;;;;;;;;;21.90;33.90;;;;;;5088636;28;20311;-75
2023/03/27 01:27:36;;;;;;;;;;;21.90;33.80;;;;;;5110422;27;19912;-82
2023/03/27 01:30:07;;;;;;;;;;;21.90;33.80;;;;;;5108772;28;19924;-76
2023/03/27 01:32:52;;;;;;;;;;;21.90;33.80;;;;;;5108885;28;19970;-76
2023/03/27 01:35:24;;;;;;;;;;;21.80;33.70;;;;;;5108653;28;19920;-76
2023/03/27 01:40:32;;;;;;;;;;;21.80;33.90;;;;;;5110205;27;19908;-84
2023/03/27 01:43:05;;;;;;;;;;;21.80;33.80;;;;;;5108977;28;19922;-83
2023/03/27 01:45:36;;;;;;;;;;;21.80;33.80;;;;;;5143385;27;19920;-84
2023/03/27 01:48:11;;;;;;;;;;;21.80;33.70;;;;;;5143649;27;19941;-84
2023/03/27 01:50:55;;;;;;;;;;;21.80;34.20;;;;;;5108808;28;19916;-84
2023/03/27 01:53:25;;;;;;;;;;;21.80;34.00;;;;;;5109185;28;19926;-84
2023/03/27 01:55:57;;;;;;;;;;;21.80;34.00;;;;;;5108756;28;19973;-84
2023/03/27 01:58:27;;;;;;;;;;;21.70;33.80;;;;;;5108564;28;20019;-84
2023/03/27 02:00:55;;;;;;;;;;;21.70;33.80;;;;;;5108588;28;19959;-84
2023/03/27 02:03:26;;;;;;;;;;;21.90;33.90;;;;;;5108866;28;20350;-84
2023/03/27 02:05:57;;;;;;;;;;;21.80;33.70;;;;;;5108486;28;19916;-84
2023/03/27 02:08:25;;;;;;;;;;;21.90;33.70;;;;;;5108533;28;19916;-84
2023/03/27 02:10:54;;;;;;;;;;;21.90;33.90;;;;;;5108359;28;20413;-84
2023/03/27 02:13:23;;;;;;;;;;;21.90;33.70;;;;;;5109761;28;20248;-84
2023/03/27 02:15:49;;;;;;;;;;;22.00;33.80;;;;;;5108349;28;19916;-84
2023/03/27 02:18:18;;;;;;;;;;;22.00;33.50;;;;;;5108215;28;19916;-84
2023/03/27 02:20:44;;;;;;;;;;;22.00;33.60;;;;;;5108189;28;20359;-84
2023/03/27 02:23:10;;;;;;;;;;;22.00;33.60;;;;;;5108267;28;19916;-84
2023/03/27 02:25:38;;;;;;;;;;;22.10;33.50;;;;;;5108429;28;19916;-83
2023/03/27 02:28:09;;;;;;;;;;;22.10;33.40;;;;;;5108207;28;19927;-84
2023/03/27 02:30:39;;;;;;;;;;;22.10;33.40;;;;;;5108337;28;19939;-84
2023/03/27 02:33:24;;;;;;;;;;;22.20;33.60;;;;;;5142290;27;20424;-84
2023/03/27 02:38:40;;;;;;;;;;;22.10;33.50;;;;;;5110406;27;19919;-76
2023/03/27 02:41:08;;;;;;;;;;;22.10;33.30;;;;;;5109271;28;19957;-76
2023/03/27 02:46:20;;;;;;;;;;;22.10;33.40;;;;;;5110424;27;19918;-76
2023/03/27 02:48:48;;;;;;;;;;;22.00;33.30;;;;;;5108877;28;20290;-77
2023/03/27 02:54:05;;;;;;;;;;;22.00;33.50;;;;;;5110396;27;19912;-76
2023/03/27 02:56:33;;;;;;;;;;;21.90;33.30;;;;;;5109443;28;19920;-76
2023/03/27 02:59:02;;;;;;;;;;;22.00;33.50;;;;;;5109260;28;19936;-84
2023/03/27 03:01:31;;;;;;;;;;;21.90;33.50;;;;;;5109249;28;19927;-80
2023/03/27 03:03:58;;;;;;;;;;;21.90;33.40;;;;;;5108769;28;19926;-77
2023/03/27 03:06:28;;;;;;;;;;;21.90;33.40;;;;;;5109178;28;19923;-76
2023/03/27 03:09:01;;;;;;;;;;;21.90;33.50;;;;;;5108699;28;19964;-76
2023/03/27 03:11:27;;;;;;;;;;;21.90;33.40;;;;;;5108950;28;19920;-76
2023/03/27 03:13:53;;;;;;;;;;;21.80;33.40;;;;;;5108516;28;19967;-76
2023/03/27 03:16:19;;;;;;;;;;;21.80;33.30;;;;;;5109988;28;19966;-76
2023/03/27 03:18:45;;;;;;;;;;;21.90;33.50;;;;;;5108727;28;19927;-76
2023/03/27 03:21:10;;;;;;;;;;;21.80;33.40;;;;;;5109721;28;20021;-77
2023/03/27 03:23:36;;;;;;;;;;;21.80;33.50;;;;;;5108734;28;19930;-76
2023/03/27 03:26:01;;;;;;;;;;;21.80;33.50;;;;;;5142809;27;20010;-76
2023/03/27 03:28:27;;;;;;;;;;;21.80;33.50;;;;;;5142707;27;19998;-77
2023/03/27 03:30:52;;;;;;;;;;;21.90;33.50;;;;;;5108313;28;19920;-81
2023/03/27 03:33:18;;;;;;;;;;;21.90;33.50;;;;;;5108487;28;19931;-80
2023/03/27 03:35:45;;;;;;;;;;;21.90;33.50;;;;;;5108188;28;19924;-82
2023/03/27 03:38:11;;;;;;;;;;;21.80;33.40;;;;;;5142688;27;19920;-76
2023/03/27 03:40:36;;;;;;;;;;;21.90;33.40;;;;;;5108163;28;19927;-82
2023/03/27 03:43:02;;;;;;;;;;;21.80;33.50;;;;;;5108316;28;19920;-76
2023/03/27 03:45:27;;;;;;;;;;;21.80;33.50;;;;;;5108027;28;19946;-76
2023/03/27 03:47:53;;;;;;;;;;;21.90;33.50;;;;;;5109352;28;19927;-78
2023/03/27 03:50:19;;;;;;;;;;;21.90;33.40;;;;;;5108115;28;19920;-76
2023/03/27 03:52:45;;;;;;;;;;;21.90;33.30;;;;;;5118757;28;20390;-77
2023/03/27 03:55:11;;;;;;;;;;;21.80;33.40;;;;;;5129471;28;20010;-82
2023/03/27 03:57:37;;;;;;;;;;;21.90;33.40;;;;;;5111492;28;20002;-82
2023/03/27 04:00:05;;;;;;;;;;;21.90;33.20;;;;;;5145355;27;20038;-84
2023/03/27 04:02:31;;;;;;;;;;;21.80;33.30;;;;;;5110437;28;20436;-75
2023/03/27 04:04:57;;;;;;;;;;;21.80;33.30;;;;;;5099889;28;19924;-83
2023/03/27 04:07:23;;;;;;;;;;;21.80;33.30;;;;;;5097344;28;20379;-79
2023/03/27 04:09:50;;;;;;;;;;;21.80;33.30;;;;;;5097308;28;19920;-76
2023/03/27 04:12:18;;;;;;;;;;;21.80;33.40;;;;;;5115517;28;19924;-76
2023/03/27 04:14:44;;;;;;;;;;;21.80;33.30;;;;;;5097569;28;20659;-81
2023/03/27 04:17:10;;;;;;;;;;;21.80;33.30;;;;;;5097277;28;20231;-79
2023/03/27 04:19:35;;;;;;;;;;;21.70;33.30;;;;;;5097226;28;20006;-76
2023/03/27 04:22:05;;;;;;;;;;;21.80;33.30;;;;;;5097439;28;20023;-81
2023/03/27 04:24:31;;;;;;;;;;;21.90;33.40;;;;;;5097141;28;19927;-76
2023/03/27 04:26:57;;;;;;;;;;;21.70;33.30;;;;;;5097380;28;19919;-76
2023/03/27 04:29:23;;;;;;;;;;;21.80;33.40;;;;;;5097345;28;19959;-80
2023/03/27 04:31:49;;;;;;;;;;;21.90;33.40;;;;;;5097091;28;20018;-76
2023/03/27 04:34:19;;;;;;;;;;;21.90;33.30;;;;;;5097217;28;19920;-84
2023/03/27 04:36:44;;;;;;;;;;;21.80;33.30;;;;;;5096750;28;20011;-76
2023/03/27 04:39:10;;;;;;;;;;;21.80;33.40;;;;;;5096801;28;19959;-76
2023/03/27 04:41:37;;;;;;;;;;;21.90;33.40;;;;;;5115019;28;19996;-76
2023/03/27 04:44:04;;;;;;;;;;;21.80;33.30;;;;;;5097061;28;19924;-76
2023/03/27 04:46:29;;;;;;;;;;;21.80;33.30;;;;;;5097069;28;19967;-76
2023/03/27 04:48:55;;;;;;;;;;;21.80;33.20;;;;;;5096796;28;19962;-76
2023/03/27 04:51:20;;;;;;;;;;;21.80;33.30;;;;;;5096833;28;19919;-76
2023/03/27 04:53:46;;;;;;;;;;;21.90;33.40;;;;;;5096183;28;20398;-76
2023/03/27 04:56:11;;;;;;;;;;;21.80;33.20;;;;;;5096473;28;19919;-81
2023/03/27 04:58:40;;;;;;;;;;;21.80;33.30;;;;;;5131049;27;19920;-84
2023/03/27 05:01:05;;;;;;;;;;;21.80;33.30;;;;;;5096344;28;19920;-83
2023/03/27 05:03:31;;;;;;;;;;;21.80;33.30;;;;;;5096335;28;19920;-76
2023/03/27 05:05:57;;;;;;;;;;;21.80;33.30;;;;;;5096800;28;19924;-82
2023/03/27 05:08:22;;;;;;;;;;;21.80;33.40;;;;;;5096374;28;19927;-76
2023/03/27 05:10:48;;;;;;;;;;;21.80;33.30;;;;;;5096488;28;19922;-76
2023/03/27 05:13:13;;;;;;;;;;;21.80;33.30;;;;;;5096082;28;19931;-76
2023/03/27 05:15:39;;;;;;;;;;;21.80;33.40;;;;;;5095304;28;19920;-76
2023/03/27 05:18:05;;;;;;;;;;;21.80;33.40;;;;;;5114330;28;19920;-76
2023/03/27 05:20:31;;;;;;;;;;;21.70;33.40;;;;;;5114271;28;19919;-76
2023/03/27 05:22:57;;;;;;;;;;;21.80;33.40;;;;;;5095914;28;19920;-82
2023/03/27 05:25:23;;;;;;;;;;;21.80;33.50;;;;;;5129729;27;19959;-80
2023/03/27 05:27:49;;;;;;;;;;;21.80;33.20;;;;;;5095625;28;20371;-76
2023/03/27 05:30:16;;;;;;;;;;;21.70;33.20;;;;;;5096136;28;20011;-76
2023/03/27 05:32:43;;;;;;;;;;;21.70;33.40;;;;;;5113881;28;20397;-82
2023/03/27 05:35:10;;;;;;;;;;;21.80;33.40;;;;;;5095729;28;19974;-75
2023/03/27 05:37:35;;;;;;;;;;;21.80;33.40;;;;;;5112961;28;19973;-76
2023/03/27 05:40:01;;;;;;;;;;;21.80;33.30;;;;;;5091321;28;19928;-75
2023/03/27 05:42:26;;;;;;;;;;;21.80;33.10;;;;;;5111522;28;20033;-75
2023/03/27 05:44:52;;;;;;;;;;;21.70;33.00;;;;;;5094660;28;19935;-80
2023/03/27 05:47:19;;;;;;;;;;;21.60;33.50;;;;;;5094407;28;20371;-73
2023/03/27 05:49:45;;;;;;;;;;;21.40;33.50;;;;;;5092322;28;20285;-76
2023/03/27 05:52:10;;;;;;;;;;;21.40;33.60;;;;;;5092602;28;19924;-71
2023/03/27 05:54:36;;;;;;;;;;;21.40;33.70;;;;;;5093686;28;19920;-70
2023/03/27 05:57:01;;;;;;;;;;;21.40;33.50;;;;;;5093256;28;19920;-71
2023/03/27 05:59:27;;;;;;;;;;;21.30;33.50;;;;;;5091017;28;21247;-72
2023/03/27 06:01:52;;;;;;;;;;;21.30;33.40;;;;;;5089457;28;20362;-71
2023/03/27 06:04:18;;;;;;;;;;;21.40;33.50;;;;;;5084510;28;19959;-75
2023/03/27 06:06:44;;;;;;;;;;;21.60;33.50;;;;;;5087850;28;20024;-78
2023/03/27 06:09:11;;;;;;;;;;;21.70;32.60;;;;;;5086123;28;20366;-77
2023/03/27 06:11:37;;;;;;;;;;;21.90;32.90;;;;;;5086240;28;19920;-77
2023/03/27 06:14:02;;;;;;;;;;;22.10;32.80;;;;;;5083263;28;19973;-77
2023/03/27 06:16:28;;;;;;;;;;;22.40;32.80;;;;;;5103366;28;20399;-72
2023/03/27 06:18:53;;;;;;;;;;;22.50;32.40;;;;;;5103574;28;20403;-72
2023/03/27 06:21:19;;;;;;;;;;;22.60;31.60;;;;;;5112343;27;19951;-72
2023/03/27 06:23:46;;;;;;;;;;;22.60;31.20;;;;;;5076410;28;19977;-73
2023/03/27 06:26:12;;;;;;;;;;;22.40;31.50;;;;;;5076531;28;19924;-74
2023/03/27 06:28:38;;;;;;;;;;;22.40;32.10;;;;;;5071709;28;19920;-72
2023/03/27 06:31:04;;;;;;;;;;;22.40;32.30;;;;;;5075609;28;19996;-73
2023/03/27 06:33:30;;;;;;;;;;;22.20;32.40;;;;;;5087453;28;19962;-72
2023/03/27 06:35:59;;;;;;;;;;;22.20;32.60;;;;;;5052518;28;20043;-71
2023/03/27 06:38:25;;;;;;;;;;;22.30;32.50;;;;;;5074344;28;20012;-71
2023/03/27 06:40:51;;;;;;;;;;;22.20;32.50;;;;;;5071574;28;20382;-72
2023/03/27 06:43:21;;;;;;;;;;;22.10;32.20;;;;;;5069086;28;20022;-71
2023/03/27 06:45:48;;;;;;;;;;;22.00;32.50;;;;;;5091571;28;19930;-71
2023/03/27 06:48:15;;;;;;;;;;;21.90;32.50;;;;;;5073006;28;19932;-72
2023/03/27 06:50:41;;;;;;;;;;;21.80;32.60;;;;;;5071791;28;20280;-70
2023/03/27 06:53:07;;;;;;;;;;;21.80;32.80;;;;;;5075075;28;19927;-69
2023/03/27 06:55:33;;;;;;;;;;;21.90;33.20;;;;;;5078841;28;19924;-72
2023/03/27 06:58:00;;;;;;;;;;;22.10;33.30;;;;;;5071018;28;19923;-67
2023/03/27 07:00:27;;;;;;;;;;;22.20;32.70;;;;;;5071464;28;19931;-70
2023/03/27 07:05:35;;;;;;;;;;;22.40;33.10;;;;;;5073866;27;20347;-68
2023/03/27 07:08:01;;;;;;;;;;;22.50;33.10;;;;;;5065799;28;19968;-69
2023/03/27 07:10:27;;;;;;;;;;;22.50;33.00;;;;;;5092524;28;20025;-71
2023/03/27 07:12:53;;;;;;;;;;;22.50;33.00;;;;;;5064353;28;19993;-70
2023/03/27 07:15:19;;;;;;;;;;;22.50;33.00;;;;;;5066091;28;19928;-69
2023/03/27 07:17:54;;;;;;;;;;;22.40;33.00;;;;;;5067347;28;19928;-69
2023/03/27 07:20:20;;;;;;;;;;;22.40;33.10;;;;;;5063132;28;19943;-71
2023/03/27 07:22:45;;;;;;;;;;;22.30;33.20;;;;;;5096473;28;19968;-73
2023/03/27 07:25:11;;;;;;;;;;;22.10;33.60;;;;;;5068119;28;20338;-70
2023/03/27 07:27:37;;;;;;;;;;;21.90;34.00;;;;;;5068058;28;19932;-72
2023/03/27 07:30:06;;;;;;;;;;;21.70;34.60;;;;;;5069599;28;19921;-74
2023/03/27 07:32:33;;;;;;;;;;;21.50;34.80;;;;;;5068421;28;19924;-74
2023/03/27 07:34:59;;;;;;;;;;;21.30;35.30;;;;;;5098387;28;19920;-75
2023/03/27 07:37:25;;;;;;;;;;;21.20;35.50;;;;;;5065737;28;19932;-74
2023/03/27 07:39:50;;;;;;;;;;;21.10;35.90;;;;;;5067178;28;19928;-73
2023/03/27 07:42:16;;;;;;;;;;;21.10;36.20;;;;;;5065524;28;20676;-68
2023/03/27 07:44:41;;;;;;;;;;;21.20;36.00;;;;;;5065443;28;19921;-74
2023/03/27 07:47:07;;;;;;;;;;;21.20;36.20;;;;;;5096974;28;19929;-75
2023/03/27 07:49:32;;;;;;;;;;;21.30;36.40;;;;;;5065458;28;20023;-74
2023/03/27 07:51:59;;;;;;;;;;;21.50;36.20;;;;;;5064424;28;19950;-72
2023/03/27 07:54:25;;;;;;;;;;;21.50;36.10;;;;;;5066392;28;20280;-75
2023/03/27 07:56:51;;;;;;;;;;;21.70;36.10;;;;;;5066910;28;19932;-72
2023/03/27 07:59:19;;;;;;;;;;;21.80;36.30;;;;;;5065036;28;19924;-77
2023/03/27 08:01:45;;;;;;;;;;;21.90;36.30;;;;;;5099396;28;20020;-72
2023/03/27 08:04:10;;;;;;;;;;;22.10;36.40;;;;;;5065683;28;20931;-73
2023/03/27 08:06:36;;;;;;;;;;;22.20;35.90;;;;;;5069702;28;19924;-72
2023/03/27 08:09:02;;;;;;;;;;;22.30;35.90;;;;;;5099084;28;19972;-74
2023/03/27 08:11:28;;;;;;;;;;;22.40;36.00;;;;;;5062282;28;19993;-73
2023/03/27 08:13:54;;;;;;;;;;;22.40;35.90;;;;;;5069749;28;20115;-72
2023/03/27 08:16:20;;;;;;;;;;;22.30;35.80;;;;;;5057878;28;20361;-71
2023/03/27 08:18:46;;;;;;;;;;;22.20;35.70;;;;;;5084825;28;19929;-72
2023/03/27 08:21:12;;;;;;;;;;;22.10;35.80;;;;;;5052650;28;19931;-72
2023/03/27 08:23:38;;;;;;;;;;;22.00;35.80;;;;;;5053777;28;19998;-71
2023/03/27 08:26:04;;;;;;;;;;;21.90;35.70;;;;;;5050300;28;19928;-73
2023/03/27 08:28:31;;;;;;;;;;;21.80;35.60;;;;;;5088298;28;19932;-72
2023/03/27 08:30:57;;;;;;;;;;;21.60;35.70;;;;;;5053366;28;19950;-69
2023/03/27 08:33:23;;;;;;;;;;;21.40;35.70;;;;;;5064457;28;19928;-74
2023/03/27 08:35:49;;;;;;;;;;;21.20;35.90;;;;;;5053716;28;20330;-73
2023/03/27 08:38:15;;;;;;;;;;;21.10;35.80;;;;;;5055955;28;19986;-73
2023/03/27 08:40:46;;;;;;;;;;;21.00;35.10;;;;;;5072974;28;19928;-73
2023/03/27 08:43:15;;;;;;;;;;;20.80;34.90;;;;;;5056037;28;20303;-72
2023/03/27 08:45:44;;;;;;;;;;;20.80;34.90;;;;;;5053974;28;19931;-72
2023/03/27 08:48:20;;;;;;;;;;;20.80;34.90;;;;;;5052024;28;19932;-72
2023/03/27 08:50:50;;;;;;;;;;;20.70;34.30;;;;;;5080074;28;19935;-73
2023/03/27 08:53:21;;;;;;;;;;;20.80;34.50;;;;;;5050381;28;19922;-74
2023/03/27 08:55:46;;;;;;;;;;;21.00;34.40;;;;;;5054249;28;19925;-72
2023/03/27 08:58:17;;;;;;;;;;;21.10;34.40;;;;;;5051395;28;20411;-72
2023/03/27 09:00:44;;;;;;;;;;;21.30;34.30;;;;;;5053373;28;19925;-70
2023/03/27 09:03:13;;;;;;;;;;;21.60;34.20;;;;;;5083675;28;19921;-67
2023/03/27 09:05:49;;;;;;;;;;;21.70;33.90;;;;;;5068561;28;19931;-74
2023/03/27 09:11:03;;;;;;;;;;;22.00;33.60;;;;;;5089382;27;19957;-71
2023/03/27 09:13:43;;;;;;;;;;;22.10;33.50;;;;;;5060155;28;19928;-72
2023/03/27 09:16:15;;;;;;;;;;;22.10;33.40;;;;;;5058220;28;20448;-72
2023/03/27 09:18:53;;;;;;;;;;;22.10;33.40;;;;;;5059835;28;19927;-69
2023/03/27 09:21:20;;;;;;;;;;;22.20;33.50;;;;;;5054599;28;20128;-70
2023/03/27 09:23:46;;;;;;;;;;;22.10;33.40;;;;;;5056437;28;19985;-68
2023/03/27 09:26:15;;;;;;;;;;;22.00;33.50;;;;;;5056577;28;19929;-68
2023/03/27 09:29:00;;;;;;;;;;;22.00;33.90;;;;;;5069930;28;20017;-68
2023/03/27 09:31:28;;;;;;;;;;;21.90;33.90;;;;;;5051312;28;20167;-68
2023/03/27 09:33:54;;;;;;;;;;;21.80;33.90;;;;;;5051485;28;19956;-68
2023/03/27 09:36:20;;;;;;;;;;;21.70;33.90;;;;;;5072542;28;19924;-67
2023/03/27 09:38:49;;;;;;;;;;;21.60;34.30;;;;;;5065582;28;20202;-64
2023/03/27 09:41:32;;;;;;;;;;;21.60;34.30;;;;;;5053517;28;20179;-66
2023/03/27 09:44:04;;;;;;;;;;;21.50;34.50;;;;;;5053100;28;20390;-66
2023/03/27 09:46:31;;;;;;;;;;;21.50;34.40;;;;;;5055517;28;19928;-67
2023/03/27 09:51:54;;;;;;;;;;;21.50;34.80;;;;;;5091021;27;19931;-67
2023/03/27 09:54:20;;;;;;;;;;;21.50;34.80;;;;;;5085717;28;19948;-67
2023/03/27 09:56:48;;;;;;;;;;;21.60;34.80;;;;;;5106432;27;20390;-67
2023/03/27 09:59:33;;;;;;;;;;;21.60;34.90;;;;;;5106149;27;20388;-67
2023/03/27 10:02:00;;;;;;;;;;;21.60;35.00;;;;;;5071990;28;19948;-65
2023/03/27 10:04:27;;;;;;;;;;;21.50;34.60;;;;;;5077922;28;20495;-65
2023/03/27 10:09:37;;;;;;;;;;;21.20;34.20;;;;;;5077834;27;19965;-64
2023/03/27 10:14:48;;;;;;;;;;;20.80;33.60;;;;;;5083723;27;19917;-68
2023/03/27 10:17:22;;;;;;;;;;;20.70;33.90;;;;;;5072960;28;19954;-71
2023/03/27 10:19:50;;;;;;;;;;;20.80;33.50;;;;;;5073837;28;19924;-72
2023/03/27 10:22:20;;;;;;;;;;;20.80;34.00;;;;;;5070571;28;20630;-71
2023/03/27 10:24:46;;;;;;;;;;;20.90;34.20;;;;;;5074345;28;19927;-72
2023/03/27 10:27:17;;;;;;;;;;;21.10;34.20;;;;;;5069883;28;20332;-71
2023/03/27 10:29:43;;;;;;;;;;;21.20;34.00;;;;;;5105069;28;19971;-71
2023/03/27 10:32:09;;;;;;;;;;;21.40;33.90;;;;;;5071655;28;19928;-73
2023/03/27 10:34:40;;;;;;;;;;;21.50;33.70;;;;;;5072059;28;19981;-72
2023/03/27 10:37:26;;;;;;;;;;;21.50;32.00;;;;;;5071951;28;19925;-73
2023/03/27 10:39:53;;;;;;;;;;;21.40;32.10;;;;;;5071543;28;19925;-66
2023/03/27 10:42:21;;;;;;;;;;;21.30;31.90;;;;;;5073275;28;20350;-73
2023/03/27 10:44:47;;;;;;;;;;;21.10;32.30;;;;;;5077618;28;19950;-72
2023/03/27 10:47:22;;;;;;;;;;;21.00;33.30;;;;;;5070174;28;20441;-72
2023/03/27 10:49:54;;;;;;;;;;;21.00;33.50;;;;;;5075764;28;19924;-72
2023/03/27 10:52:22;;;;;;;;;;;21.00;33.60;;;;;;5072819;28;19924;-72
2023/03/27 10:55:07;;;;;;;;;;;21.00;33.80;;;;;;5067217;28;20460;-70
2023/03/27 10:57:33;;;;;;;;;;;21.10;34.50;;;;;;5088202;28;20332;-68
2023/03/27 11:00:21;;;;;;;;;;;21.30;34.00;;;;;;5104338;28;19928;-71
2023/03/27 11:05:29;;;;;;;;;;;21.60;33.20;;;;;;5084626;27;19927;-66
2023/03/27 11:07:59;;;;;;;;;;;21.60;33.00;;;;;;5089571;28;19928;-69
2023/03/27 11:10:30;;;;;;;;;;;21.70;33.00;;;;;;5053709;28;20359;-67
2023/03/27 11:12:59;;;;;;;;;;;21.70;33.10;;;;;;5083686;28;20344;-71
2023/03/27 11:18:17;;;;;;;;;;;21.90;33.60;;;;;;5064794;28;19920;-71
2023/03/27 11:20:46;;;;;;;;;;;22.10;34.00;;;;;;5074831;28;21118;-71
2023/03/27 11:23:16;;;;;;;;;;;22.20;34.10;;;;;;5055307;28;19924;-76
2023/03/27 11:25:45;;;;;;;;;;;22.20;34.20;;;;;;5047470;28;20029;-77
2023/03/27 11:28:31;;;;;;;;;;;22.20;34.30;;;;;;5057138;28;20035;-68
2023/03/27 11:31:01;;;;;;;;;;;22.30;34.40;;;;;;5051720;28;20027;-67
2023/03/27 11:33:32;;;;;;;;;;;22.30;34.60;;;;;;5055965;28;20338;-67
2023/03/27 11:36:04;;;;;;;;;;;22.30;34.80;;;;;;5060570;28;20023;-69
2023/03/27 11:38:32;;;;;;;;;;;22.20;34.90;;;;;;5069914;28;19929;-70
2023/03/27 11:40:58;;;;;;;;;;;22.20;35.10;;;;;;5056351;28;19956;-74
2023/03/27 11:43:24;;;;;;;;;;;22.10;35.10;;;;;;5061168;28;19975;-72
2023/03/27 11:45:55;;;;;;;;;;;22.00;35.30;;;;;;5060202;28;20405;-69
2023/03/27 11:48:41;;;;;;;;;;;22.00;35.50;;;;;;5055672;28;20387;-76
2023/03/27 11:51:26;;;;;;;;;;;21.90;35.50;;;;;;5057640;28;20315;-72
2023/03/27 11:54:04;;;;;;;;;;;21.80;35.50;;;;;;5057348;28;19928;-70
2023/03/27 12:02:33;;;;;;;;;;;21.50;35.40;;;;;;5073690;27;20392;-75
2023/03/27 12:07:53;;;;;;;;;;;21.40;35.60;;;;;;5070947;27;20294;-71
2023/03/27 12:10:34;;;;;;;;;;;21.40;36.20;;;;;;5062215;28;19929;-75
2023/03/27 12:13:20;;;;;;;;;;;21.40;35.40;;;;;;5068319;28;20015;-71
2023/03/27 12:15:56;;;;;;;;;;;21.40;35.40;;;;;;5062292;28;19960;-69
2023/03/27 12:18:28;;;;;;;;;;;21.60;35.50;;;;;;5071646;28;19928;-70
2023/03/27 12:29:03;;;;;;;;;;;22.10;35.20;;;;;;5089358;27;20391;-74
2023/03/27 12:31:35;;;;;;;;;;;22.20;35.00;;;;;;5102869;27;19925;-75
2023/03/27 12:36:46;;;;;;;;;;;22.20;34.60;;;;;;5083101;27;19921;-70
2023/03/27 12:39:17;;;;;;;;;;;22.20;34.60;;;;;;5052468;28;19924;-72
2023/03/27 12:41:43;;;;;;;;;;;22.20;34.80;;;;;;5086173;28;19933;-71
2023/03/27 12:44:11;;;;;;;;;;;22.20;34.80;;;;;;5052596;28;20283;-68
2023/03/27 12:46:38;;;;;;;;;;;22.20;34.90;;;;;;5051190;28;20018;-75
2023/03/27 12:51:47;;;;;;;;;;;22.20;34.90;;;;;;5070055;27;19924;-73
2023/03/27 12:57:14;;;;;;;;;;;22.10;35.00;;;;;;5087508;27;19920;-69
2023/03/27 12:59:49;;;;;;;;;;;22.00;34.80;;;;;;5063681;28;19924;-67
2023/03/27 13:05:04;;;;;;;;;;;21.90;34.50;;;;;;5058348;28;19957;-67
2023/03/27 13:07:35;;;;;;;;;;;21.80;34.20;;;;;;5039846;28;19940;-70
2023/03/27 13:13:03;;;;;;;;;;;21.50;31.90;;;;;;5086393;27;19923;-67
2023/03/27 13:15:33;;;;;;;;;;;21.40;32.00;;;;;;5074510;28;20373;-67
2023/03/27 13:18:18;;;;;;;;;;;21.30;31.60;;;;;;5077444;28;19928;-68
2023/03/27 13:20:51;;;;;;;;;;;21.30;32.20;;;;;;5080106;28;20341;-67
2023/03/27 13:23:21;;;;;;;;;;;21.50;32.30;;;;;;5107619;28;19985;-67
2023/03/27 13:26:07;;;;;;;;;;;21.60;32.40;;;;;;5102995;28;19994;-68
2023/03/27 13:28:35;;;;;;;;;;;21.70;32.40;;;;;;5108711;28;20439;-67
2023/03/27 13:31:01;;;;;;;;;;;21.90;32.50;;;;;;5072586;28;20469;-70
2023/03/27 13:36:11;;;;;;;;;;;22.10;31.30;;;;;;5094604;27;19923;-70
2023/03/27 13:41:45;;;;;;;;;;;22.10;31.00;;;;;;5098971;27;20359;-69
2023/03/27 13:44:13;;;;;;;;;;;22.10;30.80;;;;;;5113124;27;19920;-68
2023/03/27 13:46:43;;;;;;;;;;;22.00;30.90;;;;;;5077550;28;20019;-68
2023/03/27 13:49:14;;;;;;;;;;;21.90;31.20;;;;;;5116834;27;20282;-69
2023/03/27 13:54:55;;;;;;;;;;;21.60;31.50;;;;;;5069580;28;19927;-70
2023/03/27 13:57:37;;;;;;;;;;;21.50;31.30;;;;;;5053196;28;20300;-67
2023/03/27 14:00:17;;;;;;;;;;;21.50;31.50;;;;;;5047232;28;19925;-70
2023/03/27 14:02:52;;;;;;;;;;;21.60;31.50;;;;;;5049155;28;20054;-67
2023/03/27 14:05:25;;;;;;;;;;;21.60;31.50;;;;;;5032611;28;20290;-78
2023/03/27 14:08:12;;;;;;;;;;;21.60;31.60;;;;;;5052376;28;20385;-75
2023/03/27 14:21:55;;;;;;;;;;;21.50;32.20;;;;;;5092553;27;19924;-70
2023/03/27 14:24:43;;;;;;;;;;;21.50;32.30;;;;;;5098026;28;20044;-70
2023/03/27 14:27:11;;;;;;;;;;;21.40;32.30;;;;;;5121326;27;19927;-71
2023/03/27 14:29:36;;;;;;;;;;;21.40;32.40;;;;;;5090861;28;19997;-70
2023/03/27 14:32:03;;;;;;;;;;;21.40;32.50;;;;;;5092577;28;19977;-70
2023/03/27 14:34:33;;;;;;;;;;;21.30;32.60;;;;;;5095369;28;19981;-70
2023/03/27 14:37:00;;;;;;;;;;;21.30;32.60;;;;;;5091881;28;20015;-70
2023/03/27 14:39:29;;;;;;;;;;;21.20;32.70;;;;;;5089028;28;19924;-78
2023/03/27 14:44:35;;;;;;;;;;;21.00;32.90;;;;;;5087369;27;19916;-70
2023/03/27 14:47:03;;;;;;;;;;;20.90;33.00;;;;;;5086661;28;19927;-70
2023/03/27 14:49:34;;;;;;;;;;;20.90;33.20;;;;;;5087500;28;20483;-70
2023/03/27 14:52:03;;;;;;;;;;;20.80;33.30;;;;;;5086966;28;19921;-70
2023/03/27 14:54:29;;;;;;;;;;;20.70;33.40;;;;;;5086753;28;20065;-70
2023/03/27 14:56:57;;;;;;;;;;;20.60;33.50;;;;;;5087778;28;19920;-69
2023/03/27 14:59:25;;;;;;;;;;;20.50;33.60;;;;;;5085774;28;19920;-70
2023/03/27 15:01:53;;;;;;;;;;;20.50;33.80;;;;;;5087962;28;20306;-70
2023/03/27 15:04:19;;;;;;;;;;;20.40;33.80;;;;;;5087630;28;19930;-70
2023/03/27 15:06:44;;;;;;;;;;;20.40;33.90;;;;;;5089075;28;19920;-70
2023/03/27 15:09:13;;;;;;;;;;;20.40;34.00;;;;;;5089730;28;20367;-70
2023/03/27 15:11:39;;;;;;;;;;;20.30;34.10;;;;;;5088371;28;19982;-70
2023/03/27 15:14:12;;;;;;;;;;;20.30;34.20;;;;;;5088202;28;19943;-70
2023/03/27 15:16:38;;;;;;;;;;;20.20;34.20;;;;;;5089171;28;20011;-70
2023/03/27 15:19:20;;;;;;;;;;;20.20;34.30;;;;;;5088396;28;20011;-70
2023/03/27 15:24:49;;;;;;;;;;;20.10;34.40;;;;;;5110352;27;19912;-70
2023/03/27 15:27:18;;;;;;;;;;;20.00;34.40;;;;;;5108776;28;19927;-70
2023/03/27 15:29:46;;;;;;;;;;;20.00;34.60;;;;;;5110284;28;19920;-70
2023/03/27 15:32:16;;;;;;;;;;;19.90;34.60;;;;;;5108783;28;19927;-70
2023/03/27 15:34:46;;;;;;;;;;;19.90;34.60;;;;;;5108827;28;19919;-70
2023/03/27 15:37:15;;;;;;;;;;;19.90;34.80;;;;;;5108984;28;19940;-70
2023/03/27 15:40:00;;;;;;;;;;;19.80;34.80;;;;;;5108761;28;19960;-70
2023/03/27 15:42:31;;;;;;;;;;;19.80;34.90;;;;;;5108534;28;19927;-70
2023/03/27 15:45:01;;;;;;;;;;;19.80;35.00;;;;;;5110167;28;19974;-70
2023/03/27 15:47:28;;;;;;;;;;;19.70;35.00;;;;;;5109957;28;19981;-70
2023/03/27 15:50:14;;;;;;;;;;;19.60;35.10;;;;;;5108781;28;19978;-70
2023/03/27 15:52:46;;;;;;;;;;;19.60;35.20;;;;;;5142599;27;19981;-70
2023/03/27 15:55:12;;;;;;;;;;;19.60;35.30;;;;;;5109618;28;19920;-70
2023/03/27 15:57:39;;;;;;;;;;;19.50;35.30;;;;;;5108246;28;20391;-70
2023/03/27 16:00:07;;;;;;;;;;;19.40;35.40;;;;;;5108671;28;19920;-70